createdAt,value
2023-03-06T00:00:27.094Z,99723.03
2023-03-06T00:02:55.983Z,99721.31
2023-03-06T00:05:26.298Z,99718.69
2023-03-06T00:07:55.218Z,99716.94
2023-03-06T00:10:31.883Z,99721.25
2023-03-06T00:13:08.722Z,99709.97
2023-03-06T00:15:37.480Z,99709.13
2023-03-06T00:18:07.294Z,99714.34
2023-03-06T00:20:39.787Z,99603.06
2023-03-06T00:23:08.629Z,99702.16
2023-03-06T00:25:38.824Z,99701.28
2023-03-06T00:28:07.881Z,99699.56
2023-03-06T00:30:37.619Z,99713.44
2023-03-06T00:33:06.373Z,99699.53
2023-03-06T00:35:36.588Z,99696.06
2023-03-06T00:38:06.505Z,99697.81
2023-03-06T00:40:35.582Z,99693.47
2023-03-06T00:43:04.282Z,99688.25
2023-03-06T00:45:33.097Z,99683.00
2023-03-06T00:48:01.922Z,99683.03
2023-03-06T00:50:30.721Z,99678.69
2023-03-06T00:53:02.814Z,99645.66
2023-03-06T00:55:33.478Z,99661.28
2023-03-06T00:58:02.068Z,99669.09
2023-03-06T01:00:30.848Z,99658.69
2023-03-06T01:02:59.755Z,99657.81
2023-03-06T01:05:28.433Z,99652.59
2023-03-06T01:07:57.198Z,99651.75
2023-03-06T01:10:27.269Z,99639.56
2023-03-06T01:12:56.095Z,99643.03
2023-03-06T01:15:25.083Z,99633.47
2023-03-06T01:17:54.757Z,99640.44
2023-03-06T01:20:23.357Z,99633.47
2023-03-06T01:22:52.215Z,99636.09
2023-03-06T01:25:21.088Z,99630.00
2023-03-06T01:27:54.179Z,99630.88
2023-03-06T01:30:22.998Z,99625.66
2023-03-06T01:32:51.761Z,99626.53
2023-03-06T01:35:20.344Z,99625.66
2023-03-06T01:37:49.131Z,99619.56
2023-03-06T01:40:17.913Z,99618.69
2023-03-06T01:42:49.012Z,99622.16
2023-03-06T01:46:18.824Z,99620.44
2023-03-06T01:48:51.294Z,99616.09
2023-03-06T01:51:20.211Z,99616.06
2023-03-06T01:53:52.205Z,99615.22
2023-03-06T01:56:21.958Z,99608.25
2023-03-06T01:58:51.348Z,99604.78
2023-03-06T02:01:21.123Z,99492.78
2023-03-06T02:03:52.799Z,99557.88
2023-03-06T02:06:21.989Z,99597.81
2023-03-06T02:08:53.244Z,99593.50
2023-03-06T02:11:23.902Z,99556.16
2023-03-06T02:13:55.779Z,99590.88
2023-03-06T02:16:29.870Z,99562.25
2023-03-06T02:19:02.829Z,99590.00
2023-03-06T02:21:36.753Z,99554.41
2023-03-06T02:24:27.890Z,99583.03
2023-03-06T02:27:00.845Z,99561.38
2023-03-06T02:29:31.667Z,99579.56
2023-03-06T02:32:03.402Z,99586.50
2023-03-06T02:34:59.349Z,99590.84
2023-03-06T02:37:30.035Z,99556.97
2023-03-06T02:40:16.235Z,99585.59
2023-03-06T02:42:49.730Z,99583.88
2023-03-06T02:45:25.337Z,99526.59
2023-03-06T02:47:54.078Z,99585.63
2023-03-06T02:50:22.856Z,99577.81
2023-03-06T02:52:51.666Z,99584.75
2023-03-06T02:55:20.503Z,99578.66
2023-03-06T02:57:50.907Z,99571.69
2023-03-06T03:00:20.858Z,99567.34
2023-03-06T03:02:49.479Z,99522.22
2023-03-06T03:05:18.601Z,99438.91
2023-03-06T03:07:51.263Z,99556.09
2023-03-06T03:10:21.138Z,99561.28
2023-03-06T03:12:52.551Z,99548.25
2023-03-06T03:15:22.291Z,99555.19
2023-03-06T03:17:51.158Z,99544.75
2023-03-06T03:20:23.374Z,99548.25
2023-03-06T03:22:55.981Z,99307.09
2023-03-06T03:25:27.308Z,99515.22
2023-03-06T03:28:00.420Z,99537.78
2023-03-06T03:30:30.335Z,99440.63
2023-03-06T03:33:05.248Z,99528.22
2023-03-06T03:35:34.886Z,99529.94
2023-03-06T03:38:05.993Z,99532.53
2023-03-06T03:40:35.028Z,99520.34
2023-03-06T03:43:05.478Z,99520.34
2023-03-06T03:45:34.830Z,99526.44
2023-03-06T03:48:04.713Z,99516.91
2023-03-06T03:50:35.129Z,99516.91
2023-03-06T03:53:04.229Z,99520.38
2023-03-06T03:55:33.638Z,99522.09
2023-03-06T03:58:02.491Z,99516.00
2023-03-06T04:00:34.526Z,99515.16
2023-03-06T04:03:11.600Z,99510.78
2023-03-06T04:05:44.056Z,99517.75
2023-03-06T04:08:16.049Z,99519.44
2023-03-06T04:10:47.568Z,99513.34
2023-03-06T04:13:18.094Z,99521.19
2023-03-06T04:15:54.036Z,99513.34
2023-03-06T04:18:27.525Z,99516.78
2023-03-06T04:21:02.747Z,99516.78
2023-03-06T04:23:34.368Z,99515.91
2023-03-06T04:26:03.187Z,99514.19
2023-03-06T04:28:32.074Z,99510.69
2023-03-06T04:31:02.757Z,99443.94
2023-03-06T04:33:34.667Z,99508.97
2023-03-06T04:36:04.413Z,99511.56
2023-03-06T04:38:35.878Z,99497.69
2023-03-06T04:41:07.650Z,99374.59
2023-03-06T04:43:36.911Z,99498.59
2023-03-06T04:46:07.559Z,99483.84
2023-03-06T04:48:37.074Z,99499.47
2023-03-06T04:51:06.253Z,99493.38
2023-03-06T04:53:35.740Z,99487.31
2023-03-06T04:56:04.671Z,99484.72
2023-03-06T04:58:33.505Z,99485.59
2023-03-06T05:01:02.373Z,99483.00
2023-03-06T05:03:32.731Z,99435.31
2023-03-06T05:06:01.489Z,99476.03
2023-03-06T05:08:30.615Z,99474.31
2023-03-06T05:11:02.220Z,99476.94
2023-03-06T05:13:31.732Z,99469.09
2023-03-06T05:16:04.516Z,99470.03
2023-03-06T05:18:35.763Z,99470.03
2023-03-06T05:21:06.779Z,99472.63
2023-03-06T05:23:38.640Z,99469.16
2023-03-06T05:26:10.825Z,99458.72
2023-03-06T05:28:40.202Z,99472.63
2023-03-06T05:31:09.264Z,99470.03
2023-03-06T05:33:39.072Z,99462.19
2023-03-06T05:36:10.405Z,99471.75
2023-03-06T05:38:39.190Z,99468.28
2023-03-06T05:41:07.851Z,99469.09
2023-03-06T05:43:36.785Z,99476.06
2023-03-06T05:46:07.730Z,99476.94
2023-03-06T05:48:38.584Z,99459.63
2023-03-06T05:51:07.850Z,99486.47
2023-03-06T05:53:36.562Z,99485.59
2023-03-06T05:56:09.102Z,99491.66
2023-03-06T05:58:38.483Z,99496.88
2023-03-06T06:01:11.455Z,99487.25
2023-03-06T06:03:44.924Z,99436.06
2023-03-06T06:06:16.016Z,99469.94
2023-03-06T06:08:45.226Z,99489.88
2023-03-06T06:11:14.866Z,99490.75
2023-03-06T06:13:43.911Z,99485.50
2023-03-06T06:16:16.464Z,99482.88
2023-03-06T06:18:47.013Z,99438.63
2023-03-06T06:21:16.176Z,99491.56
2023-03-06T06:23:46.436Z,99479.38
2023-03-06T06:26:16.463Z,99480.19
2023-03-06T06:28:45.235Z,99475.84
2023-03-06T06:31:14.500Z,99482.75
2023-03-06T06:33:43.465Z,99480.09
2023-03-06T06:36:20.074Z,99480.97
2023-03-06T06:38:49.106Z,99486.13
2023-03-06T06:41:39.360Z,99444.53
2023-03-06T06:44:14.490Z,99484.34
2023-03-06T06:49:34.266Z,99485.13
2023-03-06T06:52:04.466Z,99483.41
2023-03-06T06:54:33.671Z,99490.34
2023-03-06T06:57:05.634Z,99490.28
2023-03-06T06:59:34.369Z,99489.28
2023-03-06T07:02:17.042Z,99492.63
2023-03-06T07:05:01.973Z,99483.88
2023-03-06T07:07:36.622Z,99450.88
2023-03-06T07:10:11.175Z,99484.63
2023-03-06T07:12:39.930Z,99489.06
2023-03-06T07:15:10.395Z,99482.94
2023-03-06T07:17:40.376Z,99485.50
2023-03-06T07:20:10.816Z,99482.94
2023-03-06T07:22:51.028Z,99489.75
2023-03-06T07:25:21.688Z,99490.47
2023-03-06T07:27:54.356Z,99490.56
2023-03-06T07:30:24.359Z,99500.91
2023-03-06T07:32:55.436Z,99455.50
2023-03-06T07:35:25.632Z,99483.16
2023-03-06T07:37:57.221Z,99494.50
2023-03-06T07:40:29.477Z,99502.28
2023-03-06T07:43:12.931Z,99491.56
2023-03-06T07:45:58.996Z,99506.09
2023-03-06T07:48:28.635Z,99508.44
2023-03-06T07:51:00.551Z,99499.56
2023-03-06T07:53:36.689Z,99488.75
2023-03-06T07:56:09.396Z,99501.69
2023-03-06T07:58:41.824Z,99506.31
2023-03-06T08:01:17.033Z,99496.53
2023-03-06T08:03:47.202Z,99471.38
2023-03-06T08:06:19.721Z,99508.31
2023-03-06T08:08:51.360Z,99437.09
2023-03-06T08:11:23.776Z,99456.75
2023-03-06T08:13:53.755Z,99507.19
2023-03-06T08:16:23.010Z,99507.66
2023-03-06T08:18:52.313Z,99509.56
2023-03-06T08:21:24.689Z,99360.56
2023-03-06T08:23:54.722Z,99401.81
2023-03-06T08:26:26.164Z,99486.19
2023-03-06T08:28:56.506Z,99512.00
2023-03-06T08:31:32.303Z,99419.97
2023-03-06T08:34:05.733Z,99512.38
2023-03-06T08:36:34.553Z,99462.28
2023-03-06T08:39:13.096Z,99515.59
2023-03-06T08:41:43.331Z,99514.78
2023-03-06T08:44:12.571Z,99508.94
2023-03-06T08:46:41.670Z,99510.13
2023-03-06T08:49:13.521Z,99515.88
2023-03-06T08:51:42.519Z,99513.50
2023-03-06T08:54:14.222Z,99498.44
2023-03-06T08:56:42.956Z,99515.16
2023-03-06T08:59:13.505Z,99521.63
2023-03-06T09:01:42.583Z,99510.78
2023-03-06T09:04:13.294Z,99510.56
2023-03-06T09:06:44.231Z,99475.19
2023-03-06T09:09:14.543Z,99513.28
2023-03-06T09:11:43.384Z,99515.97
2023-03-06T09:14:12.189Z,99512.84
2023-03-06T09:16:41.492Z,99482.72
2023-03-06T09:19:10.292Z,99518.41
2023-03-06T09:21:39.085Z,99525.47
2023-03-06T09:24:10.286Z,99522.00
2023-03-06T09:26:45.959Z,99517.25
2023-03-06T09:29:16.426Z,99517.38
2023-03-06T09:31:45.461Z,99512.84
2023-03-06T09:34:14.265Z,99511.13
2023-03-06T09:36:55.916Z,99510.28
2023-03-06T09:39:27.373Z,99505.56
2023-03-06T09:41:58.583Z,99474.06
2023-03-06T09:44:32.143Z,99511.53
2023-03-06T09:47:42.693Z,99491.47
2023-03-06T09:50:31.387Z,99508.81
2023-03-06T09:53:20.586Z,99511.31
2023-03-06T09:56:04.370Z,99503.94
2023-03-06T09:58:44.588Z,99506.25
2023-03-06T10:01:21.897Z,99504.41
2023-03-06T10:03:55.637Z,99486.97
2023-03-06T10:06:30.965Z,99484.66
2023-03-06T10:09:06.648Z,99495.53
2023-03-06T10:11:43.756Z,99498.72
2023-03-06T10:14:26.466Z,99500.75
2023-03-06T10:16:56.145Z,99497.19
2023-03-06T10:19:34.973Z,99508.78
2023-03-06T10:22:26.080Z,99505.31
2023-03-06T10:25:02.551Z,99499.72
2023-03-06T10:27:43.940Z,99398.34
2023-03-06T10:30:33.576Z,99500.78
2023-03-06T10:33:16.694Z,99501.97
2023-03-06T10:35:50.033Z,99492.03
2023-03-06T10:38:23.992Z,99425.53
2023-03-06T10:41:22.291Z,99415.59
2023-03-06T10:44:25.030Z,99500.34
2023-03-06T10:46:56.336Z,99495.25
2023-03-06T10:49:35.280Z,99490.84
2023-03-06T10:52:07.425Z,99491.63
2023-03-06T10:54:38.578Z,99491.56
2023-03-06T10:57:26.125Z,99483.38
2023-03-06T10:59:57.732Z,99481.56
2023-03-06T11:02:32.152Z,99486.69
2023-03-06T11:05:03.708Z,99457.53
2023-03-06T11:07:33.735Z,99472.22
2023-03-06T11:10:19.445Z,99435.28
2023-03-06T11:13:01.395Z,99471.31
2023-03-06T11:15:33.212Z,99470.59
2023-03-06T11:18:06.466Z,99465.13
2023-03-06T11:20:51.438Z,99421.31
2023-03-06T11:23:30.505Z,99410.25
2023-03-06T11:26:07.527Z,99451.53
2023-03-06T11:28:43.480Z,99469.53
2023-03-06T11:31:21.067Z,99465.69
2023-03-06T11:33:58.378Z,99458.91
2023-03-06T11:36:37.075Z,99456.44
2023-03-06T11:39:23.100Z,99450.66
2023-03-06T11:42:04.477Z,99455.75
2023-03-06T11:44:54.013Z,99352.16
2023-03-06T11:47:29.729Z,99448.00
2023-03-06T11:50:20.203Z,99436.66
2023-03-06T11:52:54.461Z,99434.63
2023-03-06T11:55:41.489Z,99435.75
2023-03-06T11:58:50.896Z,99438.88
2023-03-06T12:01:28.518Z,99437.72
2023-03-06T12:04:47.601Z,99419.97
2023-03-06T12:07:31.495Z,99424.53
2023-03-06T12:10:17.500Z,99306.34
2023-03-06T12:13:12.025Z,99428.78
2023-03-06T12:16:10.247Z,99411.09
2023-03-06T12:18:53.272Z,99423.75
2023-03-06T12:21:41.725Z,99423.66
2023-03-06T12:24:33.902Z,99420.47
2023-03-06T12:27:18.453Z,99271.59
2023-03-06T12:30:20.080Z,99324.47
2023-03-06T12:33:05.323Z,99413.88
2023-03-06T12:36:15.495Z,99413.06
2023-03-06T12:39:07.864Z,99419.44
2023-03-06T12:42:08.851Z,99336.00
2023-03-06T12:45:13.393Z,99405.09
2023-03-06T12:47:48.338Z,99412.97
2023-03-06T12:50:25.149Z,99409.78
2023-03-06T12:52:56.051Z,99406.44
2023-03-06T12:55:26.200Z,99412.13
2023-03-06T12:57:56.056Z,99413.44
2023-03-06T13:01:04.954Z,99410.66
2023-03-06T13:03:55.491Z,99413.22
2023-03-06T13:06:56.620Z,99356.03
2023-03-06T13:09:37.337Z,99412.19
2023-03-06T13:12:28.085Z,99322.03
2023-03-06T13:15:28.652Z,99401.94
2023-03-06T13:17:57.900Z,99423.38
2023-03-06T13:20:46.019Z,99428.91
2023-03-06T13:23:52.568Z,99410.44
2023-03-06T13:26:52.630Z,99426.72
2023-03-06T13:30:07.619Z,99346.84
2023-03-06T13:32:38.274Z,99420.75
2023-03-06T13:35:53.816Z,99413.03
2023-03-06T13:38:37.333Z,99406.53
2023-03-06T13:41:54.969Z,99401.41
2023-03-06T13:44:52.160Z,99403.59
2023-03-06T13:47:39.739Z,99406.56
2023-03-06T13:50:39.789Z,99408.25
2023-03-06T13:54:08.426Z,99404.41
2023-03-06T13:57:18.489Z,99410.16
2023-03-06T14:00:24.837Z,99420.09
2023-03-06T14:03:47.680Z,99412.25
2023-03-06T14:07:04.888Z,99407.16
2023-03-06T14:09:38.409Z,99401.91
2023-03-06T14:12:17.646Z,99339.66
2023-03-06T14:14:53.965Z,99394.34
2023-03-06T14:17:29.566Z,99410.59
2023-03-06T14:20:05.381Z,99409.06
2023-03-06T14:22:35.297Z,99409.13
2023-03-06T14:25:16.013Z,99414.00
2023-03-06T14:27:49.861Z,99423.03
2023-03-06T14:30:25.195Z,99433.47
2023-03-06T14:32:56.455Z,99399.81
2023-03-06T14:35:30.491Z,99350.34
2023-03-06T14:38:04.607Z,99409.34
2023-03-06T14:40:37.992Z,99393.75
2023-03-06T14:43:22.384Z,99443.13
2023-03-06T14:45:58.027Z,99442.19
2023-03-06T14:48:38.440Z,99433.47
2023-03-06T14:51:14.273Z,99436.03
2023-03-06T14:53:46.151Z,99324.22
2023-03-06T14:57:02.413Z,99439.63
2023-03-06T14:59:39.640Z,99233.28
2023-03-06T15:02:16.305Z,99373.59
2023-03-06T15:04:49.106Z,99237.50
2023-03-06T15:07:23.740Z,99403.84
2023-03-06T15:09:55.868Z,99432.41
2023-03-06T15:12:42.029Z,99436.75
2023-03-06T15:15:31.925Z,99443.75
2023-03-06T15:18:01.267Z,99428.09
2023-03-06T15:20:47.191Z,99433.25
2023-03-06T15:23:22.031Z,99399.50
2023-03-06T15:26:04.860Z,99448.16
2023-03-06T15:28:38.535Z,99441.19
2023-03-06T15:31:23.399Z,99442.94
2023-03-06T15:34:24.440Z,99444.69
2023-03-06T15:37:00.913Z,99445.50
2023-03-06T15:39:39.799Z,99443.72
2023-03-06T15:42:22.415Z,99443.72
2023-03-06T15:44:55.088Z,99391.84
2023-03-06T15:47:25.379Z,99400.50
2023-03-06T15:49:54.524Z,99439.50
2023-03-06T15:52:24.020Z,99439.47
2023-03-06T15:54:52.805Z,99435.13
2023-03-06T15:57:29.167Z,99436.84
2023-03-06T15:59:59.861Z,99427.34
2023-03-06T16:02:28.610Z,99436.03
2023-03-06T16:04:57.424Z,99433.47
2023-03-06T16:07:28.006Z,99436.94
2023-03-06T16:09:57.898Z,99436.09
2023-03-06T16:12:29.764Z,99383.19
2023-03-06T16:15:02.302Z,99434.34
2023-03-06T16:17:31.029Z,99430.84
2023-03-06T16:19:59.743Z,99430.81
2023-03-06T16:22:28.535Z,99430.81
2023-03-06T16:24:57.273Z,99441.25
2023-03-06T16:27:28.327Z,99434.28
2023-03-06T16:29:56.817Z,99429.91
2023-03-06T16:32:28.620Z,99426.47
2023-03-06T16:34:57.300Z,99437.72
2023-03-06T16:37:25.745Z,99441.19
2023-03-06T16:39:54.211Z,99436.84
2023-03-06T16:42:23.469Z,99442.06
2023-03-06T16:44:53.504Z,99396.13
2023-03-06T16:47:22.492Z,99436.06
2023-03-06T16:49:52.048Z,99395.34
2023-03-06T16:52:20.810Z,99436.09
2023-03-06T16:54:51.977Z,99440.47
2023-03-06T16:57:20.888Z,99444.81
2023-03-06T16:59:49.910Z,99443.94
2023-03-06T17:02:19.747Z,99422.28
2023-03-06T17:04:48.602Z,99391.06
2023-03-06T17:07:17.439Z,99444.81
2023-03-06T17:09:46.912Z,99444.81
2023-03-06T17:12:15.619Z,99447.41
2023-03-06T17:14:44.089Z,99430.97
2023-03-06T17:17:13.840Z,99452.63
2023-03-06T17:19:47.761Z,99436.19
2023-03-06T17:22:17.891Z,99455.28
2023-03-06T17:24:49.333Z,99426.66
2023-03-06T17:27:18.817Z,99457.03
2023-03-06T17:29:47.682Z,99458.75
2023-03-06T17:32:16.627Z,99358.13
2023-03-06T17:34:46.805Z,99450.88
2023-03-06T17:37:15.591Z,99463.06
2023-03-06T17:39:44.380Z,99464.84
2023-03-06T17:42:13.136Z,99463.94
2023-03-06T17:44:42.358Z,99470.06
2023-03-06T17:47:12.324Z,99469.19
2023-03-06T17:49:41.101Z,99471.78
2023-03-06T17:52:12.297Z,99466.59
2023-03-06T17:54:41.109Z,99458.78
2023-03-06T17:57:09.934Z,99460.53
2023-03-06T17:59:39.326Z,99457.06
2023-03-06T18:02:09.607Z,99413.72
2023-03-06T18:04:38.925Z,99458.81
2023-03-06T18:07:07.899Z,99457.97
2023-03-06T18:09:39.855Z,99129.50
2023-03-06T18:12:10.326Z,99464.06
2023-03-06T18:14:38.716Z,99442.38
2023-03-06T18:17:07.490Z,99464.06
2023-03-06T18:19:36.070Z,99429.38
2023-03-06T18:22:04.798Z,99464.97
2023-03-06T18:24:33.673Z,99464.13
2023-03-06T18:27:03.503Z,99441.53
2023-03-06T18:29:32.348Z,99472.81
2023-03-06T18:32:03.292Z,99474.56
2023-03-06T18:34:32.175Z,99478.88
2023-03-06T18:37:00.983Z,99479.75
2023-03-06T18:39:29.886Z,99483.25
2023-03-06T18:41:58.639Z,99485.84
2023-03-06T18:44:28.938Z,99481.50
2023-03-06T18:46:57.730Z,99478.91
2023-03-06T18:49:26.467Z,99481.50
2023-03-06T18:51:55.266Z,99477.16
2023-03-06T18:54:24.476Z,99466.75
2023-03-06T18:56:53.260Z,99476.28
2023-03-06T18:59:21.986Z,99472.81
2023-03-06T19:01:57.379Z,99441.53
2023-03-06T19:04:26.479Z,99478.88
2023-03-06T19:06:55.682Z,99472.78
2023-03-06T19:09:24.433Z,99478.88
2023-03-06T19:11:54.839Z,99478.00
2023-03-06T19:14:23.398Z,99478.84
2023-03-06T19:16:53.753Z,99490.97
2023-03-06T19:19:26.179Z,99484.91
2023-03-06T19:21:55.029Z,99486.69
2023-03-06T19:24:23.779Z,99492.75
2023-03-06T19:26:52.283Z,99490.16
2023-03-06T19:29:20.982Z,99496.25
2023-03-06T19:31:50.926Z,99494.50
2023-03-06T19:34:20.998Z,99492.75
2023-03-06T19:36:52.118Z,99478.88
2023-03-06T19:39:20.869Z,99492.78
2023-03-06T19:41:49.751Z,99487.56
2023-03-06T19:44:18.445Z,99490.13
2023-03-06T19:46:47.190Z,99493.63
2023-03-06T19:49:18.144Z,99353.94
2023-03-06T19:51:48.083Z,99492.75
2023-03-06T19:54:16.978Z,99487.53
2023-03-06T19:56:45.401Z,99490.13
2023-03-06T19:59:14.454Z,99490.16
2023-03-06T20:01:43.315Z,99483.19
2023-03-06T20:04:12.275Z,99487.50
2023-03-06T20:06:41.383Z,99491.84
2023-03-06T20:09:12.837Z,99483.16
2023-03-06T20:11:41.725Z,99484.88
2023-03-06T20:14:13.481Z,99477.94
2023-03-06T20:16:42.279Z,99480.53
2023-03-06T20:19:13.411Z,99477.91
2023-03-06T20:21:42.185Z,99476.16
2023-03-06T20:24:16.819Z,99426.72
2023-03-06T20:26:48.892Z,99415.41
2023-03-06T20:29:17.724Z,99463.97
2023-03-06T20:31:46.725Z,99459.63
2023-03-06T20:34:16.570Z,99459.63
2023-03-06T20:36:45.547Z,99460.50
2023-03-06T20:39:18.375Z,99465.69
2023-03-06T20:41:47.615Z,99345.13
2023-03-06T20:44:20.401Z,99456.09
2023-03-06T20:46:49.268Z,99457.84
2023-03-06T20:49:17.892Z,99450.88
2023-03-06T20:51:47.003Z,99448.28
2023-03-06T20:54:18.326Z,99442.22
2023-03-06T20:56:50.196Z,99433.56
2023-03-06T20:59:20.033Z,99441.38
2023-03-06T21:01:48.973Z,99440.50
2023-03-06T21:04:22.776Z,99438.75
2023-03-06T21:06:54.874Z,99424.00
2023-03-06T21:09:24.700Z,99427.50
2023-03-06T21:11:53.342Z,99437.91
2023-03-06T21:14:22.066Z,99428.31
2023-03-06T21:16:50.770Z,99423.09
2023-03-06T21:19:19.312Z,99413.59
2023-03-06T21:21:47.920Z,99430.09
2023-03-06T21:24:20.929Z,99428.34
2023-03-06T21:26:52.025Z,99428.34
2023-03-06T21:29:20.629Z,99425.72
2023-03-06T21:31:49.001Z,99434.41
2023-03-06T21:34:17.731Z,99427.41
2023-03-06T21:36:46.395Z,99428.28
2023-03-06T21:39:15.213Z,99420.41
2023-03-06T21:41:43.947Z,99428.25
2023-03-06T21:44:13.692Z,99416.94
2023-03-06T21:46:42.445Z,99417.84
2023-03-06T21:49:11.206Z,99404.84
2023-03-06T21:51:39.706Z,99397.06
2023-03-06T21:54:09.711Z,99399.78
2023-03-06T21:56:38.178Z,99401.56
2023-03-06T21:59:06.888Z,99389.47
2023-03-06T22:01:36.707Z,99389.47
2023-03-06T22:04:05.518Z,99395.53
2023-03-06T22:06:34.022Z,99391.16
2023-03-06T22:09:04.200Z,99392.00
2023-03-06T22:11:36.900Z,99367.72
2023-03-06T22:14:06.374Z,99382.41
2023-03-06T22:16:36.184Z,99377.19
2023-03-06T22:19:04.761Z,99358.06
2023-03-06T22:21:33.333Z,99357.16
2023-03-06T22:24:02.179Z,99375.34
2023-03-06T22:26:31.698Z,99374.47
2023-03-06T22:29:00.410Z,99371.00
2023-03-06T22:31:30.385Z,99362.25
2023-03-06T22:34:02.256Z,99359.59
2023-03-06T22:36:32.020Z,99357.84
2023-03-06T22:39:02.856Z,99343.03
2023-03-06T22:41:32.296Z,99343.13
2023-03-06T22:44:03.089Z,99344.97
2023-03-06T22:46:33.117Z,99318.22
2023-03-06T22:49:03.795Z,99325.22
2023-03-06T22:51:32.576Z,99334.75
2023-03-06T22:54:01.056Z,99334.75
2023-03-06T22:56:29.602Z,99334.72
2023-03-06T22:58:58.710Z,99337.25
2023-03-06T23:01:29.416Z,99331.16
2023-03-06T23:04:00.624Z,99292.09
2023-03-06T23:06:33.713Z,99335.38
2023-03-06T23:09:05.850Z,99317.97
2023-03-06T23:11:52.969Z,99272.03
2023-03-06T23:14:40.102Z,99318.78
2023-03-06T23:17:27.742Z,99317.00
2023-03-06T23:20:15.179Z,99317.88
2023-03-06T23:23:03.365Z,99318.69
2023-03-06T23:25:44.577Z,99309.94
2023-03-06T23:28:13.831Z,99308.22
2023-03-06T23:30:43.246Z,99282.25
2023-03-06T23:33:12.848Z,99309.94
2023-03-06T23:35:50.986Z,99265.72
2023-03-06T23:38:20.836Z,99310.72
2023-03-06T23:40:50.059Z,99302.03
2023-03-06T23:43:18.724Z,99302.03
2023-03-06T23:45:54.919Z,99301.09
2023-03-06T23:48:27.850Z,99298.50
2023-03-06T23:50:58.377Z,99289.75
2023-03-06T23:53:40.016Z,99292.38
2023-03-06T23:56:12.393Z,99255.16
2023-03-06T23:58:45.476Z,99265.56
